sensor_id;sensor_type;location;lat;lon;timestamp;pressure;altitude;pressure_sealevel;temperature;humidity
47742;BME280;33504;52.066;6.096;2023-02-23T00:01:49;101190.86;;;11.64;47.34
47742;BME280;33504;52.066;6.096;2023-02-23T00:04:15;101188.84;;;11.39;47.39
47742;BME280;33504;52.066;6.096;2023-02-23T00:06:43;101189.00;;;11.65;47.29
47742;BME280;33504;52.066;6.096;2023-02-23T00:09:10;101187.13;;;11.66;47.28
47742;BME280;33504;52.066;6.096;2023-02-23T00:11:38;101184.68;;;11.65;47.23
47742;BME280;33504;52.066;6.096;2023-02-23T00:14:04;101183.82;;;11.66;47.16
47742;BME280;33504;52.066;6.096;2023-02-23T00:16:31;101185.11;;;11.64;47.13
47742;BME280;33504;52.066;6.096;2023-02-23T00:18:59;101186.28;;;11.43;47.15
47742;BME280;33504;52.066;6.096;2023-02-23T00:21:28;101183.00;;;11.64;47.15
47742;BME280;33504;52.066;6.096;2023-02-23T00:23:57;101182.02;;;11.64;47.14
47742;BME280;33504;52.066;6.096;2023-02-23T00:26:26;101181.96;;;11.60;47.09
47742;BME280;33504;52.066;6.096;2023-02-23T00:28:53;101181.07;;;11.56;47.16
47742;BME280;33504;52.066;6.096;2023-02-23T00:31:21;101181.79;;;11.52;47.22
47742;BME280;33504;52.066;6.096;2023-02-23T00:33:49;101181.84;;;11.51;47.27
47742;BME280;33504;52.066;6.096;2023-02-23T00:36:16;101181.16;;;11.49;47.30
47742;BME280;33504;52.066;6.096;2023-02-23T00:38:43;101184.56;;;11.49;47.40
47742;BME280;33504;52.066;6.096;2023-02-23T00:41:12;101181.67;;;11.48;47.49
47742;BME280;33504;52.066;6.096;2023-02-23T00:43:40;101179.79;;;11.25;47.49
47742;BME280;33504;52.066;6.096;2023-02-23T00:46:08;101178.46;;;11.47;47.39
47742;BME280;33504;52.066;6.096;2023-02-23T00:48:35;101177.75;;;11.46;47.43
47742;BME280;33504;52.066;6.096;2023-02-23T00:51:04;101176.14;;;11.40;47.40
47742;BME280;33504;52.066;6.096;2023-02-23T00:53:31;101178.88;;;11.34;47.38
47742;BME280;33504;52.066;6.096;2023-02-23T00:55:59;101179.01;;;11.29;47.58
47742;BME280;33504;52.066;6.096;2023-02-23T00:58:26;101182.95;;;11.27;47.54
47742;BME280;33504;52.066;6.096;2023-02-23T01:00:57;101185.10;;;11.25;47.51
47742;BME280;33504;52.066;6.096;2023-02-23T01:03:24;101186.44;;;11.24;47.51
47742;BME280;33504;52.066;6.096;2023-02-23T01:05:51;101190.64;;;11.23;47.58
47742;BME280;33504;52.066;6.096;2023-02-23T01:08:18;101195.29;;;11.25;47.64
47742;BME280;33504;52.066;6.096;2023-02-23T01:10:45;101193.54;;;11.23;47.63
47742;BME280;33504;52.066;6.096;2023-02-23T01:13:12;101194.70;;;11.23;47.62
47742;BME280;33504;52.066;6.096;2023-02-23T01:15:41;101194.80;;;11.49;47.68
47742;BME280;33504;52.066;6.096;2023-02-23T01:18:08;101194.75;;;11.52;47.78
47742;BME280;33504;52.066;6.096;2023-02-23T01:20:36;101195.26;;;11.28;47.84
47742;BME280;33504;52.066;6.096;2023-02-23T01:23:04;101195.72;;;11.28;47.83
47742;BME280;33504;52.066;6.096;2023-02-23T01:25:32;101193.94;;;11.29;47.89
47742;BME280;33504;52.066;6.096;2023-02-23T01:28:00;101191.43;;;11.30;47.85
47742;BME280;33504;52.066;6.096;2023-02-23T01:30:27;101191.96;;;11.30;47.83
47742;BME280;33504;52.066;6.096;2023-02-23T01:32:54;101193.59;;;11.32;47.81
47742;BME280;33504;52.066;6.096;2023-02-23T01:35:21;101197.30;;;11.35;47.83
47742;BME280;33504;52.066;6.096;2023-02-23T01:37:48;101199.44;;;11.36;47.77
47742;BME280;33504;52.066;6.096;2023-02-23T01:40:19;101197.36;;;11.37;47.72
47742;BME280;33504;52.066;6.096;2023-02-23T01:42:46;101197.64;;;11.40;47.76
47742;BME280;33504;52.066;6.096;2023-02-23T01:45:22;101199.88;;;11.38;47.63
47742;BME280;33504;52.066;6.096;2023-02-23T01:47:51;101197.61;;;11.37;47.67
47742;BME280;33504;52.066;6.096;2023-02-23T01:50:20;101199.90;;;11.40;47.67
47742;BME280;33504;52.066;6.096;2023-02-23T01:52:50;101200.24;;;11.41;47.65
47742;BME280;33504;52.066;6.096;2023-02-23T01:55:20;101200.84;;;11.40;47.61
47742;BME280;33504;52.066;6.096;2023-02-23T01:57:48;101198.92;;;11.37;47.59
47742;BME280;33504;52.066;6.096;2023-02-23T02:00:16;101198.30;;;11.34;47.63
47742;BME280;33504;52.066;6.096;2023-02-23T02:02:43;101198.85;;;11.31;47.64
47742;BME280;33504;52.066;6.096;2023-02-23T02:05:11;101197.35;;;11.29;47.59
47742;BME280;33504;52.066;6.096;2023-02-23T02:07:41;101198.95;;;11.26;47.75
47742;BME280;33504;52.066;6.096;2023-02-23T02:10:12;101197.64;;;11.25;47.73
47742;BME280;33504;52.066;6.096;2023-02-23T02:12:44;101195.21;;;11.27;47.77
47742;BME280;33504;52.066;6.096;2023-02-23T02:15:12;101193.99;;;11.31;47.73
47742;BME280;33504;52.066;6.096;2023-02-23T02:17:47;101192.19;;;11.32;47.70
47742;BME280;33504;52.066;6.096;2023-02-23T02:20:35;101191.50;;;11.35;47.70
47742;BME280;33504;52.066;6.096;2023-02-23T02:23:32;101189.86;;;11.34;47.71
47742;BME280;33504;52.066;6.096;2023-02-23T02:26:16;101192.55;;;11.37;47.80
47742;BME280;33504;52.066;6.096;2023-02-23T02:29:07;101193.70;;;11.41;47.77
47742;BME280;33504;52.066;6.096;2023-02-23T02:31:52;101194.74;;;11.41;47.74
47742;BME280;33504;52.066;6.096;2023-02-23T02:34:48;101196.77;;;11.46;47.73
47742;BME280;33504;52.066;6.096;2023-02-23T02:37:34;101195.54;;;11.47;47.72
47742;BME280;33504;52.066;6.096;2023-02-23T02:40:08;101193.30;;;11.51;47.60
47742;BME280;33504;52.066;6.096;2023-02-23T02:42:48;101190.91;;;11.44;47.56
47742;BME280;33504;52.066;6.096;2023-02-23T02:45:24;101187.69;;;11.33;47.57
47742;BME280;33504;52.066;6.096;2023-02-23T02:47:57;101186.21;;;11.21;47.69
47742;BME280;33504;52.066;6.096;2023-02-23T02:50:37;101186.73;;;11.11;47.84
47742;BME280;33504;52.066;6.096;2023-02-23T02:53:09;101183.72;;;11.02;48.05
47742;BME280;33504;52.066;6.096;2023-02-23T02:55:39;101181.13;;;10.97;48.01
47742;BME280;33504;52.066;6.096;2023-02-23T02:58:08;101180.71;;;10.94;48.10
47742;BME280;33504;52.066;6.096;2023-02-23T03:00:38;101182.82;;;10.93;48.16
47742;BME280;33504;52.066;6.096;2023-02-23T03:03:05;101181.78;;;10.96;48.22
47742;BME280;33504;52.066;6.096;2023-02-23T03:05:39;101183.68;;;10.97;48.35
47742;BME280;33504;52.066;6.096;2023-02-23T03:08:14;101185.68;;;11.03;48.40
47742;BME280;33504;52.066;6.096;2023-02-23T03:10:47;101187.18;;;11.57;48.26
47742;BME280;33504;52.066;6.096;2023-02-23T03:13:19;101188.36;;;11.12;48.09
47742;BME280;33504;52.066;6.096;2023-02-23T03:15:54;101191.22;;;11.16;48.04
47742;BME280;33504;52.066;6.096;2023-02-23T03:18:42;101189.47;;;11.19;48.10
47742;BME280;33504;52.066;6.096;2023-02-23T03:21:15;101192.76;;;11.23;48.22
47742;BME280;33504;52.066;6.096;2023-02-23T03:23:54;101192.43;;;11.28;48.21
47742;BME280;33504;52.066;6.096;2023-02-23T03:26:30;101196.33;;;11.29;48.14
47742;BME280;33504;52.066;6.096;2023-02-23T03:29:04;101198.35;;;11.31;48.11
47742;BME280;33504;52.066;6.096;2023-02-23T03:31:38;101201.06;;;11.31;48.14
47742;BME280;33504;52.066;6.096;2023-02-23T03:34:11;101200.12;;;11.33;48.08
47742;BME280;33504;52.066;6.096;2023-02-23T03:36:45;101200.38;;;11.30;48.05
47742;BME280;33504;52.066;6.096;2023-02-23T03:39:20;101200.73;;;11.31;48.00
47742;BME280;33504;52.066;6.096;2023-02-23T03:41:52;101201.87;;;11.30;47.91
47742;BME280;33504;52.066;6.096;2023-02-23T03:44:24;101200.23;;;11.26;47.84
47742;BME280;33504;52.066;6.096;2023-02-23T03:46:54;101204.10;;;11.24;47.89
47742;BME280;33504;52.066;6.096;2023-02-23T03:49:26;101204.63;;;11.22;48.01
47742;BME280;33504;52.066;6.096;2023-02-23T03:52:00;101203.88;;;11.22;48.20
47742;BME280;33504;52.066;6.096;2023-02-23T03:54:31;101206.92;;;11.22;48.20
47742;BME280;33504;52.066;6.096;2023-02-23T03:57:03;101210.49;;;11.48;48.13
47742;BME280;33504;52.066;6.096;2023-02-23T03:59:35;101214.23;;;11.21;48.18
47742;BME280;33504;52.066;6.096;2023-02-23T04:02:05;101212.07;;;11.20;48.19
47742;BME280;33504;52.066;6.096;2023-02-23T04:04:35;101211.27;;;10.97;48.18
47742;BME280;33504;52.066;6.096;2023-02-23T04:07:02;101211.82;;;11.17;48.17
47742;BME280;33504;52.066;6.096;2023-02-23T04:09:32;101214.87;;;11.44;48.24
47742;BME280;33504;52.066;6.096;2023-02-23T04:12:05;101218.79;;;11.20;48.28
47742;BME280;33504;52.066;6.096;2023-02-23T04:14:38;101220.01;;;11.19;48.25
47742;BME280;33504;52.066;6.096;2023-02-23T04:17:08;101221.58;;;11.17;48.23
47742;BME280;33504;52.066;6.096;2023-02-23T04:19:36;101222.68;;;11.16;48.27
47742;BME280;33504;52.066;6.096;2023-02-23T04:22:03;101222.73;;;11.15;48.24
47742;BME280;33504;52.066;6.096;2023-02-23T04:24:31;101223.54;;;11.14;48.29
47742;BME280;33504;52.066;6.096;2023-02-23T04:26:58;101222.59;;;11.13;48.36
47742;BME280;33504;52.066;6.096;2023-02-23T04:29:25;101224.71;;;11.14;48.36
47742;BME280;33504;52.066;6.096;2023-02-23T04:31:53;101225.14;;;11.15;48.38
47742;BME280;33504;52.066;6.096;2023-02-23T04:34:20;101228.00;;;11.13;48.46
47742;BME280;33504;52.066;6.096;2023-02-23T04:36:47;101230.06;;;11.41;48.47
47742;BME280;33504;52.066;6.096;2023-02-23T04:39:14;101232.29;;;11.15;48.46
47742;BME280;33504;52.066;6.096;2023-02-23T04:41:41;101235.80;;;11.12;48.44
47742;BME280;33504;52.066;6.096;2023-02-23T04:44:08;101236.72;;;11.09;48.42
47742;BME280;33504;52.066;6.096;2023-02-23T04:46:35;101237.89;;;11.07;48.53
47742;BME280;33504;52.066;6.096;2023-02-23T04:49:03;101236.74;;;11.05;48.57
47742;BME280;33504;52.066;6.096;2023-02-23T04:51:30;101237.65;;;11.03;48.69
47742;BME280;33504;52.066;6.096;2023-02-23T04:53:58;101239.14;;;11.03;48.73
47742;BME280;33504;52.066;6.096;2023-02-23T04:56:24;101241.97;;;11.51;48.73
47742;BME280;33504;52.066;6.096;2023-02-23T04:58:51;101240.21;;;11.01;48.75
47742;BME280;33504;52.066;6.096;2023-02-23T05:01:18;101242.88;;;11.01;48.79
47742;BME280;33504;52.066;6.096;2023-02-23T05:03:45;101244.14;;;10.81;48.75
47742;BME280;33504;52.066;6.096;2023-02-23T05:06:12;101243.05;;;11.06;48.56
47742;BME280;33504;52.066;6.096;2023-02-23T05:08:39;101244.30;;;11.00;48.49
47742;BME280;33504;52.066;6.096;2023-02-23T05:11:07;101246.46;;;10.94;48.39
47742;BME280;33504;52.066;6.096;2023-02-23T05:13:34;101246.94;;;10.87;48.37
47742;BME280;33504;52.066;6.096;2023-02-23T05:16:01;101247.01;;;10.85;48.38
47742;BME280;33504;52.066;6.096;2023-02-23T05:18:28;101250.19;;;10.81;48.28
47742;BME280;33504;52.066;6.096;2023-02-23T05:21:02;101251.27;;;11.28;48.32
47742;BME280;33504;52.066;6.096;2023-02-23T05:23:29;101255.44;;;10.74;48.28
47742;BME280;33504;52.066;6.096;2023-02-23T05:25:59;101255.04;;;11.20;48.20
47742;BME280;33504;52.066;6.096;2023-02-23T05:28:25;101257.75;;;10.67;48.05
47742;BME280;33504;52.066;6.096;2023-02-23T05:30:53;101259.02;;;10.62;48.24
47742;BME280;33504;52.066;6.096;2023-02-23T05:33:20;101258.16;;;11.06;48.40
47742;BME280;33504;52.066;6.096;2023-02-23T05:35:47;101258.99;;;10.77;48.29
47742;BME280;33504;52.066;6.096;2023-02-23T05:38:14;101258.13;;;10.74;48.62
47742;BME280;33504;52.066;6.096;2023-02-23T05:40:41;101257.98;;;10.49;48.87
47742;BME280;33504;52.066;6.096;2023-02-23T05:43:09;101260.40;;;10.50;49.00
47742;BME280;33504;52.066;6.096;2023-02-23T05:45:39;101262.46;;;10.74;49.07
47742;BME280;33504;52.066;6.096;2023-02-23T05:48:06;101261.00;;;10.99;49.14
47742;BME280;33504;52.066;6.096;2023-02-23T05:50:33;101261.39;;;10.52;49.21
47742;BME280;33504;52.066;6.096;2023-02-23T05:53:01;101256.90;;;10.80;49.13
47742;BME280;33504;52.066;6.096;2023-02-23T05:55:28;101255.50;;;10.80;49.16
47742;BME280;33504;52.066;6.096;2023-02-23T05:57:55;101257.83;;;10.57;49.20
47742;BME280;33504;52.066;6.096;2023-02-23T06:00:22;101260.16;;;10.82;49.19
47742;BME280;33504;52.066;6.096;2023-02-23T06:02:50;101261.24;;;10.82;49.22
47742;BME280;33504;52.066;6.096;2023-02-23T06:05:17;101264.42;;;10.54;49.14
47742;BME280;33504;52.066;6.096;2023-02-23T06:07:44;101267.67;;;10.54;48.98
47742;BME280;33504;52.066;6.096;2023-02-23T06:10:12;101268.97;;;10.77;48.80
47742;BME280;33504;52.066;6.096;2023-02-23T06:12:39;101272.65;;;10.49;48.62
47742;BME280;33504;52.066;6.096;2023-02-23T06:15:07;101273.47;;;10.72;48.53
47742;BME280;33504;52.066;6.096;2023-02-23T06:17:34;101276.06;;;10.42;48.42
47742;BME280;33504;52.066;6.096;2023-02-23T06:20:01;101277.70;;;10.87;48.44
47742;BME280;33504;52.066;6.096;2023-02-23T06:22:28;101277.61;;;10.62;48.51
47742;BME280;33504;52.066;6.096;2023-02-23T06:24:56;101283.04;;;10.79;48.60
47742;BME280;33504;52.066;6.096;2023-02-23T06:27:23;101285.54;;;10.53;48.65
47742;BME280;33504;52.066;6.096;2023-02-23T06:29:50;101289.26;;;10.70;48.85
47742;BME280;33504;52.066;6.096;2023-02-23T06:32:18;101289.39;;;10.20;49.02
47742;BME280;33504;52.066;6.096;2023-02-23T06:34:45;101294.06;;;10.69;49.20
47742;BME280;33504;52.066;6.096;2023-02-23T06:37:12;101296.77;;;10.50;49.36
47742;BME280;33504;52.066;6.096;2023-02-23T06:39:38;101298.52;;;10.75;49.39
47742;BME280;33504;52.066;6.096;2023-02-23T06:42:05;101302.48;;;10.54;49.35
47742;BME280;33504;52.066;6.096;2023-02-23T06:44:32;101302.35;;;10.77;49.35
47742;BME280;33504;52.066;6.096;2023-02-23T06:46:59;101305.15;;;10.58;49.38
47742;BME280;33504;52.066;6.096;2023-02-23T06:49:26;101307.34;;;10.80;49.45
47742;BME280;33504;52.066;6.096;2023-02-23T06:51:53;101311.10;;;10.59;49.42
47742;BME280;33504;52.066;6.096;2023-02-23T06:54:21;101314.60;;;10.60;49.49
47742;BME280;33504;52.066;6.096;2023-02-23T06:56:48;101316.32;;;10.85;49.45
47742;BME280;33504;52.066;6.096;2023-02-23T06:59:15;101316.66;;;10.64;49.39
47742;BME280;33504;52.066;6.096;2023-02-23T07:01:42;101316.73;;;10.89;49.40
47742;BME280;33504;52.066;6.096;2023-02-23T07:04:09;101320.72;;;10.68;49.28
47742;BME280;33504;52.066;6.096;2023-02-23T07:06:37;101321.06;;;10.39;49.24
47742;BME280;33504;52.066;6.096;2023-02-23T07:09:04;101324.43;;;10.65;49.17
47742;BME280;33504;52.066;6.096;2023-02-23T07:11:31;101328.28;;;10.85;49.11
47742;BME280;33504;52.066;6.096;2023-02-23T07:13:58;101331.57;;;10.34;48.99
47742;BME280;33504;52.066;6.096;2023-02-23T07:16:26;101335.50;;;10.30;48.95
47742;BME280;33504;52.066;6.096;2023-02-23T07:18:54;101337.91;;;10.30;48.96
47742;BME280;33504;52.066;6.096;2023-02-23T07:21:21;101341.54;;;10.77;48.93
47742;BME280;33504;52.066;6.096;2023-02-23T07:23:48;101343.23;;;10.75;49.07
47742;BME280;33504;52.066;6.096;2023-02-23T07:26:15;101346.40;;;10.75;49.12
47742;BME280;33504;52.066;6.096;2023-02-23T07:28:43;101349.11;;;10.74;49.10
47742;BME280;33504;52.066;6.096;2023-02-23T07:31:10;101349.75;;;10.73;49.09
47742;BME280;33504;52.066;6.096;2023-02-23T07:33:36;101354.11;;;10.51;49.09
47742;BME280;33504;52.066;6.096;2023-02-23T07:36:04;101357.68;;;10.73;49.21
47742;BME280;33504;52.066;6.096;2023-02-23T07:38:32;101356.08;;;10.23;49.41
47742;BME280;33504;52.066;6.096;2023-02-23T07:41:00;101360.59;;;10.73;49.43
47742;BME280;33504;52.066;6.096;2023-02-23T07:43:26;101360.96;;;10.50;49.53
47742;BME280;33504;52.066;6.096;2023-02-23T07:45:54;101363.46;;;10.51;49.62
47742;BME280;33504;52.066;6.096;2023-02-23T07:48:24;101362.27;;;10.75;49.69
47742;BME280;33504;52.066;6.096;2023-02-23T07:50:51;101367.00;;;10.74;49.76
47742;BME280;33504;52.066;6.096;2023-02-23T07:53:18;101371.46;;;10.76;49.70
47742;BME280;33504;52.066;6.096;2023-02-23T07:55:47;101375.05;;;10.53;49.56
47742;BME280;33504;52.066;6.096;2023-02-23T07:58:21;101377.23;;;10.47;49.47
47742;BME280;33504;52.066;6.096;2023-02-23T08:00:48;101380.63;;;10.43;49.40
47742;BME280;33504;52.066;6.096;2023-02-23T08:03:15;101383.61;;;10.65;49.39
47742;BME280;33504;52.066;6.096;2023-02-23T08:05:43;101385.33;;;10.43;49.37
47742;BME280;33504;52.066;6.096;2023-02-23T08:08:10;101385.16;;;10.47;49.39
47742;BME280;33504;52.066;6.096;2023-02-23T08:10:38;101385.77;;;10.53;49.31
47742;BME280;33504;52.066;6.096;2023-02-23T08:13:05;101388.55;;;10.53;49.30
47742;BME280;33504;52.066;6.096;2023-02-23T08:15:33;101392.79;;;10.55;49.33
47742;BME280;33504;52.066;6.096;2023-02-23T08:18:05;101393.55;;;10.56;49.27
47742;BME280;33504;52.066;6.096;2023-02-23T08:20:32;101394.22;;;10.55;49.34
47742;BME280;33504;52.066;6.096;2023-02-23T08:22:59;101394.45;;;10.52;49.41
47742;BME280;33504;52.066;6.096;2023-02-23T08:25:26;101394.66;;;10.53;49.44
47742;BME280;33504;52.066;6.096;2023-02-23T08:27:53;101394.15;;;10.58;49.50
47742;BME280;33504;52.066;6.096;2023-02-23T08:30:22;101394.04;;;10.40;49.54
47742;BME280;33504;52.066;6.096;2023-02-23T08:32:49;101394.99;;;10.65;49.60
47742;BME280;33504;52.066;6.096;2023-02-23T08:35:17;101394.68;;;10.74;49.79
47742;BME280;33504;52.066;6.096;2023-02-23T08:37:43;101395.60;;;10.82;49.72
47742;BME280;33504;52.066;6.096;2023-02-23T08:40:12;101398.51;;;10.67;49.69
47742;BME280;33504;52.066;6.096;2023-02-23T08:42:39;101400.98;;;10.95;49.72
47742;BME280;33504;52.066;6.096;2023-02-23T08:45:08;101401.45;;;10.79;49.76
47742;BME280;33504;52.066;6.096;2023-02-23T08:47:35;101405.87;;;10.60;49.73
47742;BME280;33504;52.066;6.096;2023-02-23T08:50:02;101408.75;;;10.90;49.60
47742;BME280;33504;52.066;6.096;2023-02-23T08:52:29;101411.32;;;10.94;49.62
47742;BME280;33504;52.066;6.096;2023-02-23T08:54:57;101415.99;;;10.98;49.54
47742;BME280;33504;52.066;6.096;2023-02-23T08:57:24;101415.65;;;10.75;49.62
47742;BME280;33504;52.066;6.096;2023-02-23T08:59:51;101419.69;;;10.76;49.60
47742;BME280;33504;52.066;6.096;2023-02-23T09:02:18;101422.90;;;10.77;49.55
47742;BME280;33504;52.066;6.096;2023-02-23T09:04:45;101428.72;;;11.06;49.54
47742;BME280;33504;52.066;6.096;2023-02-23T09:07:16;101430.89;;;11.06;49.35
47742;BME280;33504;52.066;6.096;2023-02-23T09:09:43;101429.93;;;10.79;49.27
47742;BME280;33504;52.066;6.096;2023-02-23T09:12:11;101432.19;;;11.00;49.04
47742;BME280;33504;52.066;6.096;2023-02-23T09:14:38;101434.47;;;11.11;48.92
47742;BME280;33504;52.066;6.096;2023-02-23T09:17:05;101435.20;;;10.59;49.07
47742;BME280;33504;52.066;6.096;2023-02-23T09:19:32;101433.41;;;10.55;48.98
47742;BME280;33504;52.066;6.096;2023-02-23T09:21:59;101433.99;;;10.56;49.06
47742;BME280;33504;52.066;6.096;2023-02-23T09:24:26;101437.21;;;10.88;49.41
47742;BME280;33504;52.066;6.096;2023-02-23T09:26:53;101439.06;;;11.19;49.37
47742;BME280;33504;52.066;6.096;2023-02-23T09:29:20;101441.43;;;10.94;49.55
47742;BME280;33504;52.066;6.096;2023-02-23T09:31:47;101445.80;;;10.74;49.52
47742;BME280;33504;52.066;6.096;2023-02-23T09:34:15;101447.34;;;11.18;49.92
47742;BME280;33504;52.066;6.096;2023-02-23T09:36:41;101448.51;;;10.83;49.66
47742;BME280;33504;52.066;6.096;2023-02-23T09:39:09;101448.27;;;10.85;49.74
47742;BME280;33504;52.066;6.096;2023-02-23T09:41:54;101448.37;;;11.19;49.64
47742;BME280;33504;52.066;6.096;2023-02-23T09:44:32;101450.44;;;10.90;49.88
47742;BME280;33504;52.066;6.096;2023-02-23T09:47:13;101455.25;;;11.42;49.78
47742;BME280;33504;52.066;6.096;2023-02-23T09:49:44;101455.75;;;11.00;49.64
47742;BME280;33504;52.066;6.096;2023-02-23T09:52:16;101457.13;;;11.10;49.61
47742;BME280;33504;52.066;6.096;2023-02-23T09:54:45;101459.24;;;11.11;49.81
47742;BME280;33504;52.066;6.096;2023-02-23T09:57:16;101462.84;;;11.22;49.72
47742;BME280;33504;52.066;6.096;2023-02-23T09:59:44;101462.14;;;11.23;49.50
47742;BME280;33504;52.066;6.096;2023-02-23T10:02:20;101464.30;;;11.19;49.38
47742;BME280;33504;52.066;6.096;2023-02-23T10:04:50;101464.30;;;11.25;49.07
47742;BME280;33504;52.066;6.096;2023-02-23T10:07:23;101463.12;;;11.78;49.04
47742;BME280;33504;52.066;6.096;2023-02-23T10:10:02;101466.74;;;11.34;49.22
47742;BME280;33504;52.066;6.096;2023-02-23T10:12:38;101465.41;;;11.39;48.97
47742;BME280;33504;52.066;6.096;2023-02-23T10:15:15;101465.45;;;11.25;48.85
47742;BME280;33504;52.066;6.096;2023-02-23T10:17:53;101463.74;;;11.26;48.83
47742;BME280;33504;52.066;6.096;2023-02-23T10:20:26;101463.72;;;11.32;48.97
47742;BME280;33504;52.066;6.096;2023-02-23T10:23:00;101460.99;;;11.14;49.20
47742;BME280;33504;52.066;6.096;2023-02-23T10:25:30;101459.21;;;11.44;49.06
47742;BME280;33504;52.066;6.096;2023-02-23T10:27:59;101464.21;;;11.44;48.95
47742;BME280;33504;52.066;6.096;2023-02-23T10:30:29;101465.59;;;11.46;49.02
47742;BME280;33504;52.066;6.096;2023-02-23T10:33:03;101471.57;;;11.54;49.22
47742;BME280;33504;52.066;6.096;2023-02-23T10:35:33;101475.57;;;11.52;49.21
47742;BME280;33504;52.066;6.096;2023-02-23T10:38:01;101477.62;;;11.33;49.34
47742;BME280;33504;52.066;6.096;2023-02-23T10:40:32;101477.57;;;11.59;49.19
47742;BME280;33504;52.066;6.096;2023-02-23T10:43:00;101474.65;;;11.63;49.15
47742;BME280;33504;52.066;6.096;2023-02-23T10:45:29;101469.02;;;11.47;48.97
47742;BME280;33504;52.066;6.096;2023-02-23T10:48:03;101467.97;;;11.76;49.01
47742;BME280;33504;52.066;6.096;2023-02-23T10:50:32;101470.73;;;11.81;48.97
47742;BME280;33504;52.066;6.096;2023-02-23T10:53:09;101475.38;;;11.86;48.96
47742;BME280;33504;52.066;6.096;2023-02-23T10:55:38;101480.01;;;11.83;49.12
47742;BME280;33504;52.066;6.096;2023-02-23T10:58:09;101483.79;;;11.86;48.87
47742;BME280;33504;52.066;6.096;2023-02-23T11:00:38;101487.85;;;11.65;48.70
47742;BME280;33504;52.066;6.096;2023-02-23T11:03:17;101488.21;;;11.81;48.63
47742;BME280;33504;52.066;6.096;2023-02-23T11:05:46;101486.50;;;11.65;48.63
47742;BME280;33504;52.066;6.096;2023-02-23T11:08:20;101485.67;;;11.66;48.69
47742;BME280;33504;52.066;6.096;2023-02-23T11:11:06;101489.73;;;11.91;48.56
47742;BME280;33504;52.066;6.096;2023-02-23T11:13:37;101493.07;;;11.86;48.48
47742;BME280;33504;52.066;6.096;2023-02-23T11:16:07;101496.75;;;11.86;48.53
47742;BME280;33504;52.066;6.096;2023-02-23T11:18:36;101496.81;;;11.51;48.39
47742;BME280;33504;52.066;6.096;2023-02-23T11:21:10;101496.23;;;11.75;48.56
47742;BME280;33504;52.066;6.096;2023-02-23T11:23:39;101489.29;;;11.78;48.45
47742;BME280;33504;52.066;6.096;2023-02-23T11:26:21;101486.58;;;11.56;48.64
47742;BME280;33504;52.066;6.096;2023-02-23T11:28:53;101483.26;;;11.57;48.52
47742;BME280;33504;52.066;6.096;2023-02-23T11:31:28;101481.24;;;11.52;48.67
47742;BME280;33504;52.066;6.096;2023-02-23T11:33:56;101477.84;;;11.77;48.73
47742;BME280;33504;52.066;6.096;2023-02-23T11:36:26;101474.43;;;11.86;48.81
47742;BME280;33504;52.066;6.096;2023-02-23T11:39:03;101471.83;;;11.87;48.82
47742;BME280;33504;52.066;6.096;2023-02-23T11:41:31;101475.04;;;11.88;48.77
47742;BME280;33504;52.066;6.096;2023-02-23T11:43:58;101477.87;;;11.97;48.62
47742;BME280;33504;52.066;6.096;2023-02-23T11:46:28;101478.47;;;11.90;48.69
47742;BME280;33504;52.066;6.096;2023-02-23T11:48:57;101479.31;;;11.71;48.63
47742;BME280;33504;52.066;6.096;2023-02-23T11:51:28;101482.40;;;11.71;48.49
47742;BME280;33504;52.066;6.096;2023-02-23T11:53:56;101483.82;;;11.68;48.69
47742;BME280;33504;52.066;6.096;2023-02-23T11:56:25;101483.00;;;11.68;48.74
47742;BME280;33504;52.066;6.096;2023-02-23T11:58:54;101483.13;;;11.89;48.77
47742;BME280;33504;52.066;6.096;2023-02-23T12:01:34;101481.78;;;11.57;48.38
47742;BME280;33504;52.066;6.096;2023-02-23T12:04:03;101480.49;;;11.56;48.73
47742;BME280;33504;52.066;6.096;2023-02-23T12:06:33;101479.26;;;11.61;48.70
47742;BME280;33504;52.066;6.096;2023-02-23T12:09:08;101479.74;;;11.89;48.47
47742;BME280;33504;52.066;6.096;2023-02-23T12:11:41;101479.68;;;11.81;48.33
47742;BME280;33504;52.066;6.096;2023-02-23T12:14:14;101480.45;;;11.60;48.24
47742;BME280;33504;52.066;6.096;2023-02-23T12:16:48;101478.23;;;11.55;48.30
47742;BME280;33504;52.066;6.096;2023-02-23T12:19:23;101475.67;;;11.59;48.36
47742;BME280;33504;52.066;6.096;2023-02-23T12:22:01;101475.20;;;11.43;48.39
47742;BME280;33504;52.066;6.096;2023-02-23T12:24:38;101479.26;;;11.58;48.59
47742;BME280;33504;52.066;6.096;2023-02-23T12:27:11;101481.90;;;11.56;48.67
47742;BME280;33504;52.066;6.096;2023-02-23T12:29:47;101485.44;;;11.64;48.35
47742;BME280;33504;52.066;6.096;2023-02-23T12:32:19;101485.09;;;11.37;48.61
47742;BME280;33504;52.066;6.096;2023-02-23T12:34:51;101490.06;;;11.47;48.36
47742;BME280;33504;52.066;6.096;2023-02-23T12:37:38;101492.16;;;11.34;48.50
47742;BME280;33504;52.066;6.096;2023-02-23T12:40:14;101494.04;;;11.12;48.57
47742;BME280;33504;52.066;6.096;2023-02-23T12:42:49;101492.16;;;11.42;48.46
47742;BME280;33504;52.066;6.096;2023-02-23T12:45:23;101492.34;;;11.38;48.31
47742;BME280;33504;52.066;6.096;2023-02-23T12:47:59;101492.71;;;11.36;48.34
47742;BME280;33504;52.066;6.096;2023-02-23T12:50:31;101495.89;;;11.49;48.40
47742;BME280;33504;52.066;6.096;2023-02-23T12:53:17;101498.25;;;11.28;48.32
47742;BME280;33504;52.066;6.096;2023-02-23T12:55:58;101499.76;;;11.28;48.43
47742;BME280;33504;52.066;6.096;2023-02-23T12:58:36;101499.00;;;11.24;48.67
47742;BME280;33504;52.066;6.096;2023-02-23T13:01:08;101494.56;;;11.32;48.59
47742;BME280;33504;52.066;6.096;2023-02-23T13:03:51;101495.31;;;11.43;48.62
47742;BME280;33504;52.066;6.096;2023-02-23T13:06:27;101497.86;;;11.37;48.65